sensor_id;sensor_type;location;lat;lon;timestamp;temperature;humidity
7606;DHT22;3844;53.360;9.738;2022-09-09T00:01:01;13.70;95.70
7606;DHT22;3844;53.360;9.738;2022-09-09T00:03:11;13.80;95.70
7606;DHT22;3844;53.360;9.738;2022-09-09T00:05:14;13.80;95.70
7606;DHT22;3844;53.360;9.738;2022-09-09T00:07:37;13.80;95.70
7606;DHT22;3844;53.360;9.738;2022-09-09T00:09:50;13.80;95.70
7606;DHT22;3844;53.360;9.738;2022-09-09T00:16:28;13.80;95.70
7606;DHT22;3844;53.360;9.738;2022-09-09T00:20:36;13.80;95.70
7606;DHT22;3844;53.360;9.738;2022-09-09T00:22:40;13.80;95.70
7606;DHT22;3844;53.360;9.738;2022-09-09T00:24:44;13.80;95.70
7606;DHT22;3844;53.360;9.738;2022-09-09T00:26:50;13.80;95.70
7606;DHT22;3844;53.360;9.738;2022-09-09T00:30:52;13.80;95.70
7606;DHT22;3844;53.360;9.738;2022-09-09T00:32:54;13.70;95.70
7606;DHT22;3844;53.360;9.738;2022-09-09T00:35:00;13.70;95.70
7606;DHT22;3844;53.360;9.738;2022-09-09T00:37:02;13.60;95.70
7606;DHT22;3844;53.360;9.738;2022-09-09T00:39:03;13.60;95.70
7606;DHT22;3844;53.360;9.738;2022-09-09T00:43:29;13.40;95.70
7606;DHT22;3844;53.360;9.738;2022-09-09T00:47:43;13.30;95.70
7606;DHT22;3844;53.360;9.738;2022-09-09T00:50:09;13.30;95.70
7606;DHT22;3844;53.360;9.738;2022-09-09T00:56:35;13.10;95.70
7606;DHT22;3844;53.360;9.738;2022-09-09T00:58:43;13.00;95.70
7606;DHT22;3844;53.360;9.738;2022-09-09T01:00:51;13.00;95.70
7606;DHT22;3844;53.360;9.738;2022-09-09T01:03:06;13.00;95.70
7606;DHT22;3844;53.360;9.738;2022-09-09T01:05:33;12.90;95.70
7606;DHT22;3844;53.360;9.738;2022-09-09T01:07:35;12.90;95.70
7606;DHT22;3844;53.360;9.738;2022-09-09T01:09:38;12.80;95.70
7606;DHT22;3844;53.360;9.738;2022-09-09T01:11:49;12.80;95.70
7606;DHT22;3844;53.360;9.738;2022-09-09T01:13:53;12.80;95.70
7606;DHT22;3844;53.360;9.738;2022-09-09T01:15:57;12.80;95.70
7606;DHT22;3844;53.360;9.738;2022-09-09T01:18:04;12.70;95.70
7606;DHT22;3844;53.360;9.738;2022-09-09T01:24:38;12.70;95.70
7606;DHT22;3844;53.360;9.738;2022-09-09T01:26:44;12.70;95.70
7606;DHT22;3844;53.360;9.738;2022-09-09T01:28:46;12.60;95.70
7606;DHT22;3844;53.360;9.738;2022-09-09T01:30:47;12.60;95.70
7606;DHT22;3844;53.360;9.738;2022-09-09T01:32:53;12.50;95.70
7606;DHT22;3844;53.360;9.738;2022-09-09T01:34:54;12.50;95.70
7606;DHT22;3844;53.360;9.738;2022-09-09T01:36:59;12.50;95.70
7606;DHT22;3844;53.360;9.738;2022-09-09T01:39:01;12.50;95.70
7606;DHT22;3844;53.360;9.738;2022-09-09T01:41:02;12.50;95.70
7606;DHT22;3844;53.360;9.738;2022-09-09T01:43:03;12.40;95.70
7606;DHT22;3844;53.360;9.738;2022-09-09T01:45:04;12.40;95.70
7606;DHT22;3844;53.360;9.738;2022-09-09T01:47:05;12.40;95.70
7606;DHT22;3844;53.360;9.738;2022-09-09T01:49:06;12.40;95.70
7606;DHT22;3844;53.360;9.738;2022-09-09T01:51:08;12.40;95.70
7606;DHT22;3844;53.360;9.738;2022-09-09T01:53:09;12.40;95.70
7606;DHT22;3844;53.360;9.738;2022-09-09T01:55:10;12.40;95.70
7606;DHT22;3844;53.360;9.738;2022-09-09T01:57:22;12.40;95.70
7606;DHT22;3844;53.360;9.738;2022-09-09T02:03:33;12.30;95.70
7606;DHT22;3844;53.360;9.738;2022-09-09T02:07:40;12.40;95.70
7606;DHT22;3844;53.360;9.738;2022-09-09T02:09:41;12.40;95.70
7606;DHT22;3844;53.360;9.738;2022-09-09T02:11:44;12.40;95.70
7606;DHT22;3844;53.360;9.738;2022-09-09T02:13:48;12.50;95.70
7606;DHT22;3844;53.360;9.738;2022-09-09T02:15:56;12.50;95.70
7606;DHT22;3844;53.360;9.738;2022-09-09T02:17:58;12.50;95.70
7606;DHT22;3844;53.360;9.738;2022-09-09T02:20:05;12.50;95.70
7606;DHT22;3844;53.360;9.738;2022-09-09T02:22:07;12.50;95.70
7606;DHT22;3844;53.360;9.738;2022-09-09T02:24:09;12.50;95.70
7606;DHT22;3844;53.360;9.738;2022-09-09T02:26:11;12.50;95.70
7606;DHT22;3844;53.360;9.738;2022-09-09T02:28:13;12.50;95.70
7606;DHT22;3844;53.360;9.738;2022-09-09T02:30:15;12.50;95.70
7606;DHT22;3844;53.360;9.738;2022-09-09T02:32:17;12.50;95.70
7606;DHT22;3844;53.360;9.738;2022-09-09T02:34:18;12.50;95.70
7606;DHT22;3844;53.360;9.738;2022-09-09T02:36:20;12.50;95.70
7606;DHT22;3844;53.360;9.738;2022-09-09T02:38:23;12.50;95.70
7606;DHT22;3844;53.360;9.738;2022-09-09T02:40:25;12.50;95.70
7606;DHT22;3844;53.360;9.738;2022-09-09T02:42:25;12.40;95.70
7606;DHT22;3844;53.360;9.738;2022-09-09T02:44:26;12.40;95.70
7606;DHT22;3844;53.360;9.738;2022-09-09T02:46:36;12.40;95.70
7606;DHT22;3844;53.360;9.738;2022-09-09T02:48:51;12.40;95.70
7606;DHT22;3844;53.360;9.738;2022-09-09T02:50:59;12.30;95.70
7606;DHT22;3844;53.360;9.738;2022-09-09T02:57:22;12.30;95.70
7606;DHT22;3844;53.360;9.738;2022-09-09T02:59:24;12.30;95.70
7606;DHT22;3844;53.360;9.738;2022-09-09T03:01:25;12.20;95.70
7606;DHT22;3844;53.360;9.738;2022-09-09T03:03:25;12.20;95.70
7606;DHT22;3844;53.360;9.738;2022-09-09T03:05:27;12.20;95.70
7606;DHT22;3844;53.360;9.738;2022-09-09T03:07:28;12.20;95.70
7606;DHT22;3844;53.360;9.738;2022-09-09T03:09:29;12.20;95.70
7606;DHT22;3844;53.360;9.738;2022-09-09T03:11:29;12.20;95.70
7606;DHT22;3844;53.360;9.738;2022-09-09T03:13:30;12.10;95.70
7606;DHT22;3844;53.360;9.738;2022-09-09T03:15:31;12.10;95.70
7606;DHT22;3844;53.360;9.738;2022-09-09T03:17:32;12.10;95.70
7606;DHT22;3844;53.360;9.738;2022-09-09T03:19:32;12.10;95.70
7606;DHT22;3844;53.360;9.738;2022-09-09T03:21:34;12.10;95.70
7606;DHT22;3844;53.360;9.738;2022-09-09T03:23:36;12.10;95.70
7606;DHT22;3844;53.360;9.738;2022-09-09T03:25:36;12.00;95.70
7606;DHT22;3844;53.360;9.738;2022-09-09T03:27:37;12.00;95.70
7606;DHT22;3844;53.360;9.738;2022-09-09T03:29:37;12.00;95.70
7606;DHT22;3844;53.360;9.738;2022-09-09T03:31:38;12.00;95.70
7606;DHT22;3844;53.360;9.738;2022-09-09T03:33:39;12.00;95.70
7606;DHT22;3844;53.360;9.738;2022-09-09T03:35:44;11.90;95.70
7606;DHT22;3844;53.360;9.738;2022-09-09T03:37:46;11.90;95.70
7606;DHT22;3844;53.360;9.738;2022-09-09T03:39:46;11.90;95.70
7606;DHT22;3844;53.360;9.738;2022-09-09T03:41:47;11.80;95.70
7606;DHT22;3844;53.360;9.738;2022-09-09T03:43:48;11.80;95.70
7606;DHT22;3844;53.360;9.738;2022-09-09T03:45:49;11.80;95.70
7606;DHT22;3844;53.360;9.738;2022-09-09T03:47:50;11.70;95.70
7606;DHT22;3844;53.360;9.738;2022-09-09T03:49:50;11.70;95.70
7606;DHT22;3844;53.360;9.738;2022-09-09T03:51:51;11.70;95.70
7606;DHT22;3844;53.360;9.738;2022-09-09T03:53:51;11.70;95.70
7606;DHT22;3844;53.360;9.738;2022-09-09T03:55:53;11.70;95.70
7606;DHT22;3844;53.360;9.738;2022-09-09T03:57:59;11.70;95.70
7606;DHT22;3844;53.360;9.738;2022-09-09T04:00:02;11.70;95.70
7606;DHT22;3844;53.360;9.738;2022-09-09T04:02:03;11.70;95.70
7606;DHT22;3844;53.360;9.738;2022-09-09T04:04:04;11.70;95.70
7606;DHT22;3844;53.360;9.738;2022-09-09T04:06:05;11.70;95.70
7606;DHT22;3844;53.360;9.738;2022-09-09T04:08:07;11.70;95.70
7606;DHT22;3844;53.360;9.738;2022-09-09T04:10:08;11.60;95.70
7606;DHT22;3844;53.360;9.738;2022-09-09T04:12:09;11.60;95.70
7606;DHT22;3844;53.360;9.738;2022-09-09T04:14:11;11.60;95.70
7606;DHT22;3844;53.360;9.738;2022-09-09T04:16:13;11.60;95.70
7606;DHT22;3844;53.360;9.738;2022-09-09T04:18:13;11.50;95.70
7606;DHT22;3844;53.360;9.738;2022-09-09T04:20:14;11.50;95.70
7606;DHT22;3844;53.360;9.738;2022-09-09T04:22:14;11.50;95.70
7606;DHT22;3844;53.360;9.738;2022-09-09T04:24:16;11.50;95.70
7606;DHT22;3844;53.360;9.738;2022-09-09T04:26:16;11.50;95.70
7606;DHT22;3844;53.360;9.738;2022-09-09T04:28:18;11.50;95.70
7606;DHT22;3844;53.360;9.738;2022-09-09T04:30:18;11.40;95.70
7606;DHT22;3844;53.360;9.738;2022-09-09T04:32:19;11.40;95.70
7606;DHT22;3844;53.360;9.738;2022-09-09T04:34:19;11.40;95.70
7606;DHT22;3844;53.360;9.738;2022-09-09T04:36:20;11.40;95.70
7606;DHT22;3844;53.360;9.738;2022-09-09T04:38:21;11.40;95.70
7606;DHT22;3844;53.360;9.738;2022-09-09T04:40:23;11.40;95.70
7606;DHT22;3844;53.360;9.738;2022-09-09T04:42:23;11.40;95.70
7606;DHT22;3844;53.360;9.738;2022-09-09T04:44:24;11.40;95.70
7606;DHT22;3844;53.360;9.738;2022-09-09T04:46:25;11.40;95.70
7606;DHT22;3844;53.360;9.738;2022-09-09T04:48:25;11.40;95.70
7606;DHT22;3844;53.360;9.738;2022-09-09T04:50:26;11.40;95.70
7606;DHT22;3844;53.360;9.738;2022-09-09T04:52:26;11.40;95.70
7606;DHT22;3844;53.360;9.738;2022-09-09T04:54:27;11.40;95.70
7606;DHT22;3844;53.360;9.738;2022-09-09T04:56:28;11.40;95.70
7606;DHT22;3844;53.360;9.738;2022-09-09T04:58:29;11.40;95.70
7606;DHT22;3844;53.360;9.738;2022-09-09T05:00:29;11.40;95.70
7606;DHT22;3844;53.360;9.738;2022-09-09T05:02:30;11.40;95.70
7606;DHT22;3844;53.360;9.738;2022-09-09T05:04:30;11.40;95.70
7606;DHT22;3844;53.360;9.738;2022-09-09T05:06:31;11.40;95.70
7606;DHT22;3844;53.360;9.738;2022-09-09T05:08:31;11.40;95.70
7606;DHT22;3844;53.360;9.738;2022-09-09T05:10:32;11.50;95.70
7606;DHT22;3844;53.360;9.738;2022-09-09T05:12:33;11.60;95.70
7606;DHT22;3844;53.360;9.738;2022-09-09T05:14:33;11.60;95.70
7606;DHT22;3844;53.360;9.738;2022-09-09T05:16:37;11.70;95.70
7606;DHT22;3844;53.360;9.738;2022-09-09T05:18:38;11.80;95.70
7606;DHT22;3844;53.360;9.738;2022-09-09T05:20:39;11.80;95.70
7606;DHT22;3844;53.360;9.738;2022-09-09T05:22:40;12.00;95.70
7606;DHT22;3844;53.360;9.738;2022-09-09T05:24:40;12.10;95.70
7606;DHT22;3844;53.360;9.738;2022-09-09T05:26:41;12.20;95.70
7606;DHT22;3844;53.360;9.738;2022-09-09T05:28:41;12.20;95.70
7606;DHT22;3844;53.360;9.738;2022-09-09T05:30:42;12.30;95.70
7606;DHT22;3844;53.360;9.738;2022-09-09T05:32:42;12.40;95.70
7606;DHT22;3844;53.360;9.738;2022-09-09T05:34:43;12.40;95.70
7606;DHT22;3844;53.360;9.738;2022-09-09T05:36:44;12.50;95.70
7606;DHT22;3844;53.360;9.738;2022-09-09T05:38:44;12.50;95.70
7606;DHT22;3844;53.360;9.738;2022-09-09T05:40:48;12.60;95.70
7606;DHT22;3844;53.360;9.738;2022-09-09T05:42:49;12.60;95.70
7606;DHT22;3844;53.360;9.738;2022-09-09T05:44:50;12.60;95.70
7606;DHT22;3844;53.360;9.738;2022-09-09T05:46:51;12.70;95.70
7606;DHT22;3844;53.360;9.738;2022-09-09T05:48:52;12.70;95.70
7606;DHT22;3844;53.360;9.738;2022-09-09T05:50:53;12.80;95.70
7606;DHT22;3844;53.360;9.738;2022-09-09T05:52:54;12.80;95.70
7606;DHT22;3844;53.360;9.738;2022-09-09T05:54:55;12.90;95.70
7606;DHT22;3844;53.360;9.738;2022-09-09T05:56:57;12.90;95.70
7606;DHT22;3844;53.360;9.738;2022-09-09T05:58:59;13.00;95.70
7606;DHT22;3844;53.360;9.738;2022-09-09T06:01:07;13.00;95.70
7606;DHT22;3844;53.360;9.738;2022-09-09T06:03:09;13.10;95.70
7606;DHT22;3844;53.360;9.738;2022-09-09T06:05:10;13.20;95.70
7606;DHT22;3844;53.360;9.738;2022-09-09T06:07:11;13.30;95.70
7606;DHT22;3844;53.360;9.738;2022-09-09T06:09:11;13.30;95.70
7606;DHT22;3844;53.360;9.738;2022-09-09T06:11:16;13.40;95.70
7606;DHT22;3844;53.360;9.738;2022-09-09T06:13:17;13.50;95.70
7606;DHT22;3844;53.360;9.738;2022-09-09T06:15:18;13.60;95.70
7606;DHT22;3844;53.360;9.738;2022-09-09T06:17:18;13.70;95.70
7606;DHT22;3844;53.360;9.738;2022-09-09T06:19:19;13.80;95.70
7606;DHT22;3844;53.360;9.738;2022-09-09T06:21:21;13.90;95.70
7606;DHT22;3844;53.360;9.738;2022-09-09T06:23:22;14.00;95.70
7606;DHT22;3844;53.360;9.738;2022-09-09T06:25:23;14.10;95.70
7606;DHT22;3844;53.360;9.738;2022-09-09T06:27:26;14.20;95.70
7606;DHT22;3844;53.360;9.738;2022-09-09T06:29:27;14.30;95.70
7606;DHT22;3844;53.360;9.738;2022-09-09T06:31:28;14.50;95.70
7606;DHT22;3844;53.360;9.738;2022-09-09T06:33:31;14.60;95.70
7606;DHT22;3844;53.360;9.738;2022-09-09T06:35:32;14.70;95.70
7606;DHT22;3844;53.360;9.738;2022-09-09T06:37:32;14.80;95.70
7606;DHT22;3844;53.360;9.738;2022-09-09T06:39:33;14.90;95.70
7606;DHT22;3844;53.360;9.738;2022-09-09T06:41:33;15.00;95.70
7606;DHT22;3844;53.360;9.738;2022-09-09T06:43:34;15.10;95.70
7606;DHT22;3844;53.360;9.738;2022-09-09T06:45:35;15.20;95.70
7606;DHT22;3844;53.360;9.738;2022-09-09T06:47:36;15.20;95.70
7606;DHT22;3844;53.360;9.738;2022-09-09T06:49:37;15.30;95.70
7606;DHT22;3844;53.360;9.738;2022-09-09T06:51:38;15.30;95.70
7606;DHT22;3844;53.360;9.738;2022-09-09T06:53:45;15.40;95.70
7606;DHT22;3844;53.360;9.738;2022-09-09T06:55:45;15.40;95.70
7606;DHT22;3844;53.360;9.738;2022-09-09T06:57:46;15.50;95.70
7606;DHT22;3844;53.360;9.738;2022-09-09T06:59:47;15.60;95.70
7606;DHT22;3844;53.360;9.738;2022-09-09T07:01:47;15.70;95.70
7606;DHT22;3844;53.360;9.738;2022-09-09T07:03:52;15.80;95.70
7606;DHT22;3844;53.360;9.738;2022-09-09T07:05:53;15.80;95.70
7606;DHT22;3844;53.360;9.738;2022-09-09T07:07:54;15.80;95.70
7606;DHT22;3844;53.360;9.738;2022-09-09T07:09:55;15.80;95.70
7606;DHT22;3844;53.360;9.738;2022-09-09T07:11:55;15.80;95.70
7606;DHT22;3844;53.360;9.738;2022-09-09T07:13:58;15.90;95.70
7606;DHT22;3844;53.360;9.738;2022-09-09T07:18:06;16.00;95.70
7606;DHT22;3844;53.360;9.738;2022-09-09T07:20:06;16.10;95.70
7606;DHT22;3844;53.360;9.738;2022-09-09T07:22:07;16.10;95.70
7606;DHT22;3844;53.360;9.738;2022-09-09T07:24:08;16.20;95.70
7606;DHT22;3844;53.360;9.738;2022-09-09T07:26:16;16.40;95.70
7606;DHT22;3844;53.360;9.738;2022-09-09T07:28:17;16.50;95.70
7606;DHT22;3844;53.360;9.738;2022-09-09T07:30:18;16.70;95.70
7606;DHT22;3844;53.360;9.738;2022-09-09T07:32:19;17.00;95.70
7606;DHT22;3844;53.360;9.738;2022-09-09T07:34:20;17.30;95.70
7606;DHT22;3844;53.360;9.738;2022-09-09T07:36:22;17.50;95.70
7606;DHT22;3844;53.360;9.738;2022-09-09T07:38:23;17.80;95.70
7606;DHT22;3844;53.360;9.738;2022-09-09T07:40:24;18.20;95.70
7606;DHT22;3844;53.360;9.738;2022-09-09T07:42:25;18.70;95.70
7606;DHT22;3844;53.360;9.738;2022-09-09T07:44:25;19.10;92.90
7606;DHT22;3844;53.360;9.738;2022-09-09T07:46:27;19.30;91.40
7606;DHT22;3844;53.360;9.738;2022-09-09T07:48:28;19.40;91.90
7606;DHT22;3844;53.360;9.738;2022-09-09T07:50:29;19.50;88.40
7606;DHT22;3844;53.360;9.738;2022-09-09T07:52:29;19.60;89.80
7606;DHT22;3844;53.360;9.738;2022-09-09T07:54:30;19.60;88.20
7606;DHT22;3844;53.360;9.738;2022-09-09T07:56:32;19.50;88.40
7606;DHT22;3844;53.360;9.738;2022-09-09T07:58:33;19.20;88.60
7606;DHT22;3844;53.360;9.738;2022-09-09T08:00:33;19.00;89.20
7606;DHT22;3844;53.360;9.738;2022-09-09T08:02:34;18.80;90.80
7606;DHT22;3844;53.360;9.738;2022-09-09T08:04:35;18.70;91.00
7606;DHT22;3844;53.360;9.738;2022-09-09T08:06:37;18.60;91.70
7606;DHT22;3844;53.360;9.738;2022-09-09T08:08:38;18.60;91.80
7606;DHT22;3844;53.360;9.738;2022-09-09T08:10:38;18.50;91.10
7606;DHT22;3844;53.360;9.738;2022-09-09T08:12:39;18.50;91.60
7606;DHT22;3844;53.360;9.738;2022-09-09T08:14:40;18.50;92.10
7606;DHT22;3844;53.360;9.738;2022-09-09T08:16:42;18.60;92.30
7606;DHT22;3844;53.360;9.738;2022-09-09T08:18:43;18.70;91.80
7606;DHT22;3844;53.360;9.738;2022-09-09T08:20:44;18.70;91.60
7606;DHT22;3844;53.360;9.738;2022-09-09T08:22:45;18.80;92.00
7606;DHT22;3844;53.360;9.738;2022-09-09T08:24:46;18.90;91.80
7606;DHT22;3844;53.360;9.738;2022-09-09T08:26:47;19.00;91.90
7606;DHT22;3844;53.360;9.738;2022-09-09T08:28:52;19.10;91.70
7606;DHT22;3844;53.360;9.738;2022-09-09T08:30:52;19.30;90.00
7606;DHT22;3844;53.360;9.738;2022-09-09T08:32:53;19.50;90.70
7606;DHT22;3844;53.360;9.738;2022-09-09T08:34:54;19.90;91.40
7606;DHT22;3844;53.360;9.738;2022-09-09T08:36:54;20.20;88.30
7606;DHT22;3844;53.360;9.738;2022-09-09T08:38:56;20.40;87.30
7606;DHT22;3844;53.360;9.738;2022-09-09T08:43:18;20.80;87.20
7606;DHT22;3844;53.360;9.738;2022-09-09T08:45:44;21.00;85.20
7606;DHT22;3844;53.360;9.738;2022-09-09T08:51:54;21.10;84.10
7606;DHT22;3844;53.360;9.738;2022-09-09T08:53:55;21.10;84.80
7606;DHT22;3844;53.360;9.738;2022-09-09T08:56:02;21.10;83.00
7606;DHT22;3844;53.360;9.738;2022-09-09T08:58:12;20.90;83.80
7606;DHT22;3844;53.360;9.738;2022-09-09T09:00:12;20.80;84.60
7606;DHT22;3844;53.360;9.738;2022-09-09T09:06:54;20.80;85.20
7606;DHT22;3844;53.360;9.738;2022-09-09T09:11:11;21.20;86.60
7606;DHT22;3844;53.360;9.738;2022-09-09T09:13:12;21.70;86.60
7606;DHT22;3844;53.360;9.738;2022-09-09T09:15:17;22.20;84.70
7606;DHT22;3844;53.360;9.738;2022-09-09T09:17:19;22.60;83.70
7606;DHT22;3844;53.360;9.738;2022-09-09T09:19:20;22.90;82.40
7606;DHT22;3844;53.360;9.738;2022-09-09T09:23:39;23.20;79.60
7606;DHT22;3844;53.360;9.738;2022-09-09T09:25:42;23.20;79.50
7606;DHT22;3844;53.360;9.738;2022-09-09T09:28:00;23.70;78.70
7606;DHT22;3844;53.360;9.738;2022-09-09T09:30:14;24.00;76.10
7606;DHT22;3844;53.360;9.738;2022-09-09T09:32:16;24.10;76.20
7606;DHT22;3844;53.360;9.738;2022-09-09T09:34:18;24.30;74.10
7606;DHT22;3844;53.360;9.738;2022-09-09T09:36:20;24.60;73.90
7606;DHT22;3844;53.360;9.738;2022-09-09T09:38:22;24.90;73.00
7606;DHT22;3844;53.360;9.738;2022-09-09T09:40:22;25.30;73.20
7606;DHT22;3844;53.360;9.738;2022-09-09T09:42:23;25.50;72.50
7606;DHT22;3844;53.360;9.738;2022-09-09T09:44:28;25.50;72.80
7606;DHT22;3844;53.360;9.738;2022-09-09T09:46:29;25.30;67.90
7606;DHT22;3844;53.360;9.738;2022-09-09T09:48:30;24.80;70.90
7606;DHT22;3844;53.360;9.738;2022-09-09T09:50:31;24.40;72.70
7606;DHT22;3844;53.360;9.738;2022-09-09T09:52:32;24.40;72.90
7606;DHT22;3844;53.360;9.738;2022-09-09T09:54:38;24.60;71.80
7606;DHT22;3844;53.360;9.738;2022-09-09T09:56:39;24.80;72.40
7606;DHT22;3844;53.360;9.738;2022-09-09T10:00:51;25.30;68.10
7606;DHT22;3844;53.360;9.738;2022-09-09T10:02:52;25.80;69.70
7606;DHT22;3844;53.360;9.738;2022-09-09T10:07:13;26.50;64.50
7606;DHT22;3844;53.360;9.738;2022-09-09T10:09:24;26.30;66.70
7606;DHT22;3844;53.360;9.738;2022-09-09T10:18:35;25.60;69.50
7606;DHT22;3844;53.360;9.738;2022-09-09T10:20:45;25.70;70.20
7606;DHT22;3844;53.360;9.738;2022-09-09T10:22:50;26.10;69.80
7606;DHT22;3844;53.360;9.738;2022-09-09T10:33:37;24.50;69.50
7606;DHT22;3844;53.360;9.738;2022-09-09T10:37:51;24.40;71.50
7606;DHT22;3844;53.360;9.738;2022-09-09T10:39:59;24.70;70.70
7606;DHT22;3844;53.360;9.738;2022-09-09T10:42:06;25.10;69.50
7606;DHT22;3844;53.360;9.738;2022-09-09T10:46:31;26.10;66.70
7606;DHT22;3844;53.360;9.738;2022-09-09T10:48:42;26.00;65.70
7606;DHT22;3844;53.360;9.738;2022-09-09T10:50:55;25.50;67.20
7606;DHT22;3844;53.360;9.738;2022-09-09T10:55:19;24.60;69.80
7606;DHT22;3844;53.360;9.738;2022-09-09T10:59:26;24.50;69.00
7606;DHT22;3844;53.360;9.738;2022-09-09T11:03:54;24.90;70.50
7606;DHT22;3844;53.360;9.738;2022-09-09T11:05:57;25.00;68.40
7606;DHT22;3844;53.360;9.738;2022-09-09T11:08:04;24.90;69.30
7606;DHT22;3844;53.360;9.738;2022-09-09T11:12:28;24.50;72.70
7606;DHT22;3844;53.360;9.738;2022-09-09T11:14:38;24.90;71.90
7606;DHT22;3844;53.360;9.738;2022-09-09T11:18:45;26.30;68.40
7606;DHT22;3844;53.360;9.738;2022-09-09T11:20:52;26.80;64.30
7606;DHT22;3844;53.360;9.738;2022-09-09T11:25:26;26.40;65.40
7606;DHT22;3844;53.360;9.738;2022-09-09T11:27:31;26.20;66.10
7606;DHT22;3844;53.360;9.738;2022-09-09T11:29:41;26.30;67.40
7606;DHT22;3844;53.360;9.738;2022-09-09T11:38:27;26.40;63.60
7606;DHT22;3844;53.360;9.738;2022-09-09T11:40:31;26.00;64.90
7606;DHT22;3844;53.360;9.738;2022-09-09T11:42:33;26.00;66.50
7606;DHT22;3844;53.360;9.738;2022-09-09T11:44:34;26.60;66.50
7606;DHT22;3844;53.360;9.738;2022-09-09T11:46:35;27.10;64.60
7606;DHT22;3844;53.360;9.738;2022-09-09T11:48:43;27.10;64.20
7606;DHT22;3844;53.360;9.738;2022-09-09T11:50:45;27.00;63.30
7606;DHT22;3844;53.360;9.738;2022-09-09T11:52:47;26.90;62.70
7606;DHT22;3844;53.360;9.738;2022-09-09T11:54:49;26.90;63.20
7606;DHT22;3844;53.360;9.738;2022-09-09T11:56:50;26.80;62.80
7606;DHT22;3844;53.360;9.738;2022-09-09T11:59:33;26.50;63.20
7606;DHT22;3844;53.360;9.738;2022-09-09T12:01:27;26.20;62.60
7606;DHT22;3844;53.360;9.738;2022-09-09T12:03:41;25.70;65.20
7606;DHT22;3844;53.360;9.738;2022-09-09T12:05:44;25.30;66.40
7606;DHT22;3844;53.360;9.738;2022-09-09T12:07:56;24.90;66.80
7606;DHT22;3844;53.360;9.738;2022-09-09T12:12:07;24.10;68.70
7606;DHT22;3844;53.360;9.738;2022-09-09T12:14:18;23.80;70.90
7606;DHT22;3844;53.360;9.738;2022-09-09T12:16:34;23.60;71.40
7606;DHT22;3844;53.360;9.738;2022-09-09T12:18:36;23.40;71.60
7606;DHT22;3844;53.360;9.738;2022-09-09T12:27:57;22.60;75.00
7606;DHT22;3844;53.360;9.738;2022-09-09T12:30:18;22.40;76.70
7606;DHT22;3844;53.360;9.738;2022-09-09T12:33:54;21.80;79.30
7606;DHT22;3844;53.360;9.738;2022-09-09T12:35:55;21.50;79.80
7606;DHT22;3844;53.360;9.738;2022-09-09T12:38:01;21.30;80.50
7606;DHT22;3844;53.360;9.738;2022-09-09T12:40:04;21.20;81.50
7606;DHT22;3844;53.360;9.738;2022-09-09T12:42:05;21.10;82.20
7606;DHT22;3844;53.360;9.738;2022-09-09T12:44:06;21.00;83.50
7606;DHT22;3844;53.360;9.738;2022-09-09T12:46:10;20.90;83.40
7606;DHT22;3844;53.360;9.738;2022-09-09T12:48:14;20.80;84.20
7606;DHT22;3844;53.360;9.738;2022-09-09T12:50:18;20.70;85.20
7606;DHT22;3844;53.360;9.738;2022-09-09T12:54:20;20.40;85.70
7606;DHT22;3844;53.360;9.738;2022-09-09T12:56:22;20.30;85.90
7606;DHT22;3844;53.360;9.738;2022-09-09T12:58:24;20.10;86.30
7606;DHT22;3844;53.360;9.738;2022-09-09T13:00:25;19.90;87.30
7606;DHT22;3844;53.360;9.738;2022-09-09T13:02:27;19.70;88.00
7606;DHT22;3844;53.360;9.738;2022-09-09T13:04:30;19.60;88.70
7606;DHT22;3844;53.360;9.738;2022-09-09T13:06:31;19.50;89.20
7606;DHT22;3844;53.360;9.738;2022-09-09T13:08:32;19.40;89.70
7606;DHT22;3844;53.360;9.738;2022-09-09T13:10:34;19.30;90.10
7606;DHT22;3844;53.360;9.738;2022-09-09T13:12:35;19.20;90.70
7606;DHT22;3844;53.360;9.738;2022-09-09T13:14:36;19.10;90.70
7606;DHT22;3844;53.360;9.738;2022-09-09T13:16:40;19.00;91.10
7606;DHT22;3844;53.360;9.738;2022-09-09T13:18:40;18.90;91.60
7606;DHT22;3844;53.360;9.738;2022-09-09T13:20:46;18.90;91.80
7606;DHT22;3844;53.360;9.738;2022-09-09T13:22:47;18.80;91.90
7606;DHT22;3844;53.360;9.738;2022-09-09T13:24:58;18.80;91.70
7606;DHT22;3844;53.360;9.738;2022-09-09T13:27:02;18.70;91.80
7606;DHT22;3844;53.360;9.738;2022-09-09T13:29:17;18.70;92.10
7606;DHT22;3844;53.360;9.738;2022-09-09T13:31:22;18.70;92.20
7606;DHT22;3844;53.360;9.738;2022-09-09T13:33:23;18.60;92.60
7606;DHT22;3844;53.360;9.738;2022-09-09T13:35:24;18.60;92.80
7606;DHT22;3844;53.360;9.738;2022-09-09T13:37:31;18.60;92.80
7606;DHT22;3844;53.360;9.738;2022-09-09T13:39:34;18.60;93.10
7606;DHT22;3844;53.360;9.738;2022-09-09T13:41:36;18.50;92.50
7606;DHT22;3844;53.360;9.738;2022-09-09T13:43:43;18.50;92.60
7606;DHT22;3844;53.360;9.738;2022-09-09T13:45:51;18.50;92.80
7606;DHT22;3844;53.360;9.738;2022-09-09T13:47:53;18.50;92.60
7606;DHT22;3844;53.360;9.738;2022-09-09T13:49:55;18.50;92.60
7606;DHT22;3844;53.360;9.738;2022-09-09T13:52:08;18.50;91.90
7606;DHT22;3844;53.360;9.738;2022-09-09T13:54:09;18.40;91.20
7606;DHT22;3844;53.360;9.738;2022-09-09T13:56:10;18.40;91.40
7606;DHT22;3844;53.360;9.738;2022-09-09T13:58:14;18.30;90.80
7606;DHT22;3844;53.360;9.738;2022-09-09T14:00:15;18.30;90.20
7606;DHT22;3844;53.360;9.738;2022-09-09T14:02:16;18.20;90.40
7606;DHT22;3844;53.360;9.738;2022-09-09T14:04:17;18.20;90.30
7606;DHT22;3844;53.360;9.738;2022-09-09T14:06:17;18.00;90.10
7606;DHT22;3844;53.360;9.738;2022-09-09T14:08:25;17.80;90.80
7606;DHT22;3844;53.360;9.738;2022-09-09T14:10:26;17.70;91.20
7606;DHT22;3844;53.360;9.738;2022-09-09T14:12:27;17.50;91.90
7606;DHT22;3844;53.360;9.738;2022-09-09T14:14:28;17.50;92.20
7606;DHT22;3844;53.360;9.738;2022-09-09T14:16:28;17.40;91.60
7606;DHT22;3844;53.360;9.738;2022-09-09T14:18:29;17.30;92.30
7606;DHT22;3844;53.360;9.738;2022-09-09T14:20:30;17.20;92.40
7606;DHT22;3844;53.360;9.738;2022-09-09T14:22:30;17.20;92.90
7606;DHT22;3844;53.360;9.738;2022-09-09T14:24:31;17.20;93.00
7606;DHT22;3844;53.360;9.738;2022-09-09T14:26:31;17.20;92.90
7606;DHT22;3844;53.360;9.738;2022-09-09T14:28:32;17.20;93.00
7606;DHT22;3844;53.360;9.738;2022-09-09T14:30:33;17.30;93.30
7606;DHT22;3844;53.360;9.738;2022-09-09T14:32:34;17.30;93.30
7606;DHT22;3844;53.360;9.738;2022-09-09T14:34:34;17.30;93.40
7606;DHT22;3844;53.360;9.738;2022-09-09T14:36:35;17.40;93.30
7606;DHT22;3844;53.360;9.738;2022-09-09T14:38:37;17.50;93.20
7606;DHT22;3844;53.360;9.738;2022-09-09T14:40:39;17.60;93.10
7606;DHT22;3844;53.360;9.738;2022-09-09T14:42:40;17.70;92.70
7606;DHT22;3844;53.360;9.738;2022-09-09T14:44:41;17.80;92.50
7606;DHT22;3844;53.360;9.738;2022-09-09T14:46:41;17.90;92.00
7606;DHT22;3844;53.360;9.738;2022-09-09T14:48:45;17.90;91.50
7606;DHT22;3844;53.360;9.738;2022-09-09T14:50:47;17.90;91.30
7606;DHT22;3844;53.360;9.738;2022-09-09T14:52:47;17.90;91.50
7606;DHT22;3844;53.360;9.738;2022-09-09T14:54:48;17.90;91.10
7606;DHT22;3844;53.360;9.738;2022-09-09T14:56:49;17.90;91.30
7606;DHT22;3844;53.360;9.738;2022-09-09T14:58:50;17.90;91.60
7606;DHT22;3844;53.360;9.738;2022-09-09T15:00:51;18.00;91.50
7606;DHT22;3844;53.360;9.738;2022-09-09T15:02:53;18.00;91.90
7606;DHT22;3844;53.360;9.738;2022-09-09T15:04:53;18.10;91.90
7606;DHT22;3844;53.360;9.738;2022-09-09T15:06:57;18.20;92.10
7606;DHT22;3844;53.360;9.738;2022-09-09T15:08:58;18.40;91.90
7606;DHT22;3844;53.360;9.738;2022-09-09T15:11:00;18.60;91.30